Time;durP1;ratioP1;P1;durP2;ratioP2;P2;SDS_P1;SDS_P2;PMS_P1;PMS_P2;Temp;Humidity;BMP_temperature;BMP_pressure;BME280_temperature;BME280_humidity;BME280_pressure;Samples;Min_cycle;Max_cycle;Signal;HPM_P1;HPM_P2
2023/05/09 04:00:58;;;;;;;0.60;0.10;;;17.10;99.90;;;;;;5799079;23;20585;-76
2023/05/09 04:03:26;;;;;;;0.60;0.10;;;16.90;99.90;;;;;;4953193;29;20450;-76
2023/05/09 04:05:54;;;;;;;0.60;0.20;;;16.80;99.90;;;;;;4953392;29;21012;-76
2023/05/09 04:08:23;;;;;;;0.60;0.20;;;16.80;99.90;;;;;;4953895;29;20477;-76
2023/05/09 04:10:51;;;;;;;0.60;0.20;;;16.80;99.90;;;;;;4954068;28;20476;-75
2023/05/09 04:13:19;;;;;;;0.60;0.10;;;16.80;99.90;;;;;;4953735;28;20446;-77
2023/05/09 04:15:46;;;;;;;0.60;0.10;;;16.80;99.90;;;;;;4954268;28;20501;-77
2023/05/09 04:18:16;;;;;;;0.60;0.10;;;16.80;99.90;;;;;;4955562;28;20482;-76
2023/05/09 04:20:44;;;;;;;0.60;0.20;;;16.80;99.90;;;;;;4957559;28;20457;-75
2023/05/09 04:23:12;;;;;;;0.60;0.13;;;16.90;99.90;;;;;;4957368;28;20538;-74
2023/05/09 04:25:39;;;;;;;0.60;0.20;;;16.80;99.90;;;;;;4957592;28;20961;-75
2023/05/09 04:28:07;;;;;;;0.60;0.10;;;16.80;99.90;;;;;;4957005;28;20446;-76
2023/05/09 04:30:36;;;;;;;0.60;0.20;;;16.80;99.90;;;;;;4956991;28;21054;-75
2023/05/09 04:33:04;;;;;;;0.60;0.10;;;16.80;99.90;;;;;;4939872;29;20522;-76
2023/05/09 04:35:33;;;;;;;0.60;0.10;;;16.90;99.90;;;;;;4957061;29;20946;-75
2023/05/09 04:38:01;;;;;;;0.60;0.10;;;17.00;99.90;;;;;;4954807;29;20489;-75
2023/05/09 04:40:29;;;;;;;0.60;0.20;;;17.00;99.90;;;;;;4956243;28;20450;-75
2023/05/09 04:42:57;;;;;;;0.60;0.10;;;17.00;99.90;;;;;;4958880;28;20477;-76
2023/05/09 04:45:26;;;;;;;0.60;0.20;;;17.10;99.90;;;;;;4957703;28;20951;-76
2023/05/09 04:47:54;;;;;;;0.60;0.10;;;17.10;99.90;;;;;;4950516;28;20551;-75
2023/05/09 04:50:22;;;;;;;0.60;0.17;;;17.20;99.90;;;;;;4956089;28;20463;-75
2023/05/09 04:52:51;;;;;;;0.60;0.10;;;17.30;99.90;;;;;;4955394;28;20470;-75
2023/05/09 04:55:19;;;;;;;0.60;0.10;;;17.30;99.90;;;;;;4948988;29;20446;-75
2023/05/09 04:57:47;;;;;;;0.60;0.20;;;17.30;99.90;;;;;;4956158;28;20529;-75
2023/05/09 05:00:16;;;;;;;0.60;0.20;;;17.30;99.90;;;;;;4956816;28;20470;-75
2023/05/09 05:02:45;;;;;;;0.60;0.10;;;17.10;99.90;;;;;;4944752;28;20489;-76
2023/05/09 05:05:13;;;;;;;0.60;0.20;;;17.10;99.90;;;;;;4957778;29;20504;-75
2023/05/09 05:07:41;;;;;;;0.60;0.10;;;17.10;99.90;;;;;;4956074;28;20457;-75
2023/05/09 05:10:10;;;;;;;1.00;0.80;;;17.20;99.90;;;;;;4956104;28;21138;-74
2023/05/09 05:12:38;;;;;;;0.60;0.20;;;17.20;99.90;;;;;;4956039;28;20478;-74
2023/05/09 05:15:07;;;;;;;0.60;0.20;;;17.20;99.90;;;;;;4956318;28;20472;-75
2023/05/09 05:17:35;;;;;;;0.60;0.10;;;17.20;99.90;;;;;;4956449;28;20488;-75
2023/05/09 05:20:05;;;;;;;0.60;0.10;;;17.20;99.90;;;;;;4958274;29;20536;-77
2023/05/09 05:22:33;;;;;;;0.60;0.20;;;17.20;99.90;;;;;;4956070;28;20602;-77
2023/05/09 05:25:02;;;;;;;1.03;0.77;;;17.20;99.90;;;;;;4955953;28;20969;-75
2023/05/09 05:27:31;;;;;;;0.60;0.10;;;17.20;99.90;;;;;;4955910;28;20468;-75
2023/05/09 05:29:59;;;;;;;0.60;0.10;;;17.30;99.90;;;;;;4955940;28;20495;-76
2023/05/09 05:32:27;;;;;;;0.60;0.10;;;17.30;99.90;;;;;;4955310;28;20501;-75
2023/05/09 05:34:56;;;;;;;0.70;0.43;;;17.20;99.90;;;;;;4954706;28;20464;-77
2023/05/09 05:37:24;;;;;;;0.60;0.20;;;17.20;99.90;;;;;;4955855;28;20974;-74
2023/05/09 05:39:51;;;;;;;0.60;0.20;;;17.30;99.90;;;;;;4958083;28;20521;-74
2023/05/09 05:42:22;;;;;;;0.60;0.20;;;;;;;;;;4947653;29;20482;-75
2023/05/09 05:44:52;;;;;;;0.60;0.20;;;17.40;99.90;;;;;;4960086;28;20464;-75
2023/05/09 05:47:20;;;;;;;0.60;0.10;;;17.50;99.90;;;;;;4956428;29;20465;-75
2023/05/09 05:49:48;;;;;;;0.60;0.10;;;;;;;;;;4957784;28;20465;-80
2023/05/09 05:52:16;;;;;;;0.60;0.10;;;17.60;99.90;;;;;;4956432;29;20493;-75
2023/05/09 05:54:44;;;;;;;0.60;0.10;;;17.60;99.90;;;;;;4955201;28;20454;-76
2023/05/09 05:57:12;;;;;;;0.60;0.10;;;17.70;99.90;;;;;;4956231;29;20493;-74
2023/05/09 05:59:40;;;;;;;0.60;0.10;;;17.80;99.90;;;;;;4958089;28;20479;-72
2023/05/09 06:02:09;;;;;;;0.60;0.20;;;17.90;99.90;;;;;;4965192;28;20838;-75
2023/05/09 06:04:37;;;;;;;0.60;0.10;;;17.90;99.90;;;;;;4967741;28;20447;-75
2023/05/09 06:07:06;;;;;;;0.60;0.10;;;17.90;99.90;;;;;;4964905;28;20449;-75
2023/05/09 06:09:33;;;;;;;0.60;0.20;;;18.00;99.90;;;;;;4963405;28;20454;-75
2023/05/09 06:12:01;;;;;;;0.60;0.10;;;18.00;99.90;;;;;;4961355;28;20852;-78
2023/05/09 06:14:29;;;;;;;0.60;0.10;;;18.10;99.90;;;;;;4964571;28;20457;-75
2023/05/09 06:16:57;;;;;;;0.60;0.10;;;18.10;99.90;;;;;;4960978;28;20446;-75
2023/05/09 06:19:27;;;;;;;0.60;0.20;;;18.20;99.90;;;;;;4956117;28;20541;-76
2023/05/09 06:21:55;;;;;;;0.60;0.10;;;18.20;99.90;;;;;;4968158;28;20465;-75
2023/05/09 06:24:23;;;;;;;1.07;0.97;;;18.30;99.90;;;;;;4963305;28;20464;-75
2023/05/09 06:27:03;;;;;;;0.60;0.20;;;18.40;99.90;;;;;;4953970;29;20943;-75
2023/05/09 06:29:31;;;;;;;0.60;0.20;;;18.50;99.90;;;;;;4955597;28;20834;-76
2023/05/09 06:31:59;;;;;;;1.60;1.50;;;18.50;99.90;;;;;;4955948;28;20474;-74
2023/05/09 06:34:28;;;;;;;0.60;0.30;;;18.60;99.90;;;;;;4955312;28;20453;-76
2023/05/09 06:36:56;;;;;;;0.93;0.70;;;18.60;99.90;;;;;;4956040;28;20451;-75
2023/05/09 06:39:24;;;;;;;0.60;0.10;;;18.60;99.90;;;;;;4955499;28;20494;-74
2023/05/09 06:41:52;;;;;;;0.60;0.10;;;18.70;99.90;;;;;;4955138;28;20473;-75
2023/05/09 06:44:19;;;;;;;0.60;0.10;;;18.70;99.90;;;;;;4955769;29;20522;-75
2023/05/09 06:46:47;;;;;;;0.60;0.10;;;18.60;99.90;;;;;;4955609;28;20453;-76
2023/05/09 06:49:15;;;;;;;0.60;0.10;;;18.60;99.90;;;;;;4955036;28;20549;-75
2023/05/09 06:51:44;;;;;;;0.60;0.10;;;18.50;99.90;;;;;;4954805;28;20578;-75
2023/05/09 06:54:12;;;;;;;0.60;0.13;;;18.50;99.90;;;;;;4954557;28;20454;-75
2023/05/09 06:56:40;;;;;;;0.60;0.10;;;18.60;99.90;;;;;;4955056;29;20887;-74
2023/05/09 06:59:12;;;;;;;0.60;0.10;;;18.50;99.90;;;;;;4955807;28;20515;-75
2023/05/09 07:01:40;;;;;;;0.60;0.20;;;18.50;99.90;;;;;;4954051;28;20574;-74
2023/05/09 07:04:08;;;;;;;0.60;0.13;;;18.50;99.90;;;;;;4954897;28;20943;-74
2023/05/09 07:06:36;;;;;;;0.60;0.10;;;18.50;99.90;;;;;;4955570;29;20453;-76
2023/05/09 07:09:05;;;;;;;0.60;0.10;;;18.60;99.90;;;;;;4954873;28;20481;-75
2023/05/09 07:11:35;;;;;;;0.60;0.10;;;19.10;99.90;;;;;;4956065;28;20493;-75
2023/05/09 07:14:03;;;;;;;2.43;2.33;;;18.60;99.90;;;;;;4948361;28;20458;-74
2023/05/09 07:16:31;;;;;;;0.60;0.10;;;18.60;99.90;;;;;;4960904;29;20439;-75
2023/05/09 07:19:00;;;;;;;0.60;0.10;;;18.80;99.90;;;;;;4958479;28;20502;-76
2023/05/09 07:21:28;;;;;;;1.77;1.30;;;18.80;99.90;;;;;;4956741;28;20529;-75
2023/05/09 07:23:56;;;;;;;0.60;0.10;;;18.90;99.90;;;;;;4958206;28;20474;-75
2023/05/09 07:26:26;;;;;;;0.60;0.10;;;18.90;99.90;;;;;;4960182;28;20446;-75
2023/05/09 07:28:53;;;;;;;0.70;0.30;;;18.90;99.90;;;;;;4962688;28;20451;-75
2023/05/09 07:31:21;;;;;;;0.60;0.10;;;19.00;99.90;;;;;;4958800;28;20482;-76
2023/05/09 07:33:49;;;;;;;0.60;0.20;;;19.00;99.90;;;;;;4965551;28;20530;-76
2023/05/09 07:36:17;;;;;;;0.60;0.30;;;19.10;99.90;;;;;;4947544;29;20455;-76
2023/05/09 07:38:46;;;;;;;0.70;0.47;;;19.20;99.90;;;;;;4957188;28;21013;-75
2023/05/09 07:41:14;;;;;;;0.60;0.20;;;19.30;99.90;;;;;;4961313;28;20521;-76
2023/05/09 07:43:44;;;;;;;1.03;0.30;;;19.40;99.90;;;;;;4960767;28;20541;-76
2023/05/09 07:46:12;;;;;;;0.60;0.20;;;19.30;99.90;;;;;;4960834;28;20481;-77
2023/05/09 07:48:40;;;;;;;0.60;0.20;;;19.40;99.90;;;;;;4964623;28;20451;-73
2023/05/09 07:51:07;;;;;;;0.60;0.20;;;19.40;99.90;;;;;;4963927;28;20489;-77
2023/05/09 07:53:35;;;;;;;0.80;0.30;;;19.40;99.90;;;;;;4962150;28;20442;-75
2023/05/09 07:56:05;;;;;;;0.60;0.10;;;19.30;99.90;;;;;;4960827;28;20458;-76
2023/05/09 07:58:33;;;;;;;0.70;0.47;;;19.40;99.90;;;;;;4963930;28;21049;-76
2023/05/09 08:01:02;;;;;;;0.60;0.10;;;19.40;99.90;;;;;;4961510;28;20498;-76
2023/05/09 08:03:30;;;;;;;0.60;0.20;;;19.40;99.90;;;;;;4957892;28;20446;-77
2023/05/09 08:05:58;;;;;;;0.60;0.20;;;19.30;99.90;;;;;;4958540;28;20553;-75
2023/05/09 08:08:27;;;;;;;0.60;0.10;;;19.40;99.90;;;;;;4958417;28;20438;-74
2023/05/09 08:10:56;;;;;;;0.60;0.10;;;19.40;99.90;;;;;;4958524;28;20463;-75
2023/05/09 08:13:24;;;;;;;1.57;1.47;;;19.40;99.90;;;;;;4956672;28;20458;-76
2023/05/09 08:15:52;;;;;;;0.60;0.10;;;19.40;99.90;;;;;;4957634;28;20449;-74
2023/05/09 08:18:21;;;;;;;0.60;0.10;;;19.40;99.90;;;;;;4957067;29;20585;-74
2023/05/09 08:20:49;;;;;;;0.60;0.20;;;19.30;99.90;;;;;;4957312;28;20979;-75
2023/05/09 08:23:17;;;;;;;0.60;0.10;;;19.30;99.90;;;;;;4957178;28;20452;-76
2023/05/09 08:25:45;;;;;;;0.60;0.20;;;19.30;99.90;;;;;;4957368;28;20459;-76
2023/05/09 08:28:13;;;;;;;0.83;0.70;;;19.30;99.90;;;;;;4957335;28;20449;-75
2023/05/09 08:30:41;;;;;;;0.60;0.20;;;19.30;99.90;;;;;;4956535;28;20455;-74
2023/05/09 08:33:09;;;;;;;0.60;0.20;;;19.30;99.90;;;;;;4956470;28;20558;-76
2023/05/09 08:35:38;;;;;;;0.70;0.40;;;19.40;99.90;;;;;;4957624;28;20940;-75
2023/05/09 08:38:06;;;;;;;0.60;0.10;;;19.40;99.90;;;;;;4956554;28;20462;-74
2023/05/09 08:40:36;;;;;;;0.60;0.10;;;19.50;99.90;;;;;;4956434;28;20479;-75
2023/05/09 08:43:06;;;;;;;0.60;0.20;;;19.30;99.90;;;;;;4956464;28;20695;-75
2023/05/09 08:45:38;;;;;;;0.60;0.10;;;19.30;99.90;;;;;;4956662;29;20446;-76
2023/05/09 08:48:07;;;;;;;0.90;0.57;;;19.30;99.90;;;;;;4957657;28;20451;-76
2023/05/09 08:50:35;;;;;;;0.80;0.50;;;19.10;99.90;;;;;;4956782;28;20450;-75
2023/05/09 08:53:05;;;;;;;0.60;0.10;;;19.10;99.90;;;;;;4956333;28;20447;-74
2023/05/09 08:55:33;;;;;;;0.60;0.10;;;19.10;99.90;;;;;;4956094;28;20458;-74
2023/05/09 08:58:00;;;;;;;0.60;0.10;;;19.20;99.90;;;;;;4957236;28;20473;-74
2023/05/09 09:00:29;;;;;;;0.60;0.20;;;19.20;99.90;;;;;;4956271;28;20486;-75
2023/05/09 09:03:00;;;;;;;0.60;0.10;;;19.30;99.90;;;;;;4955783;28;20438;-74
2023/05/09 09:05:30;;;;;;;0.60;0.20;;;19.40;99.90;;;;;;4960298;28;20935;-75
2023/05/09 09:08:04;;;;;;;0.60;0.20;;;19.50;99.90;;;;;;4961451;28;20851;-75
2023/05/09 09:10:33;;;;;;;0.60;0.20;;;19.60;99.90;;;;;;4959142;28;20446;-77
2023/05/09 09:13:03;;;;;;;0.60;0.10;;;19.60;99.90;;;;;;4958925;28;20450;-75
2023/05/09 09:15:35;;;;;;;0.60;0.20;;;19.70;99.90;;;;;;4955879;28;20534;-74
2023/05/09 09:18:07;;;;;;;0.60;0.10;;;19.70;99.90;;;;;;4956281;28;20447;-75
2023/05/09 09:20:40;;;;;;;0.60;0.20;;;19.70;99.90;;;;;;4956286;28;20526;-75
2023/05/09 09:23:10;;;;;;;0.60;0.20;;;19.70;99.90;;;;;;4955595;29;20452;-76
2023/05/09 09:25:39;;;;;;;0.60;0.20;;;19.70;99.90;;;;;;4955651;28;20456;-75
2023/05/09 09:28:07;;;;;;;0.60;0.10;;;19.60;99.90;;;;;;4955284;28;21042;-75
2023/05/09 09:30:35;;;;;;;0.60;0.10;;;19.70;99.90;;;;;;4957143;28;20434;-75
2023/05/09 09:33:06;;;;;;;0.60;0.10;;;19.70;99.90;;;;;;4958699;28;20457;-75
2023/05/09 09:35:39;;;;;;;0.60;0.10;;;19.70;99.90;;;;;;4958616;28;20495;-77
2023/05/09 09:38:07;;;;;;;0.60;0.20;;;19.70;99.90;;;;;;4956621;28;20837;-74
2023/05/09 09:40:38;;;;;;;0.60;0.10;;;19.70;99.90;;;;;;4956453;28;20845;-77
2023/05/09 09:43:07;;;;;;;0.60;0.10;;;19.70;99.90;;;;;;4956698;28;20509;-74
2023/05/09 09:45:37;;;;;;;0.60;0.37;;;19.60;99.90;;;;;;4957034;28;20447;-75
2023/05/09 09:48:07;;;;;;;0.60;0.20;;;19.60;99.90;;;;;;4956728;28;20518;-76
2023/05/09 09:50:35;;;;;;;0.60;0.10;;;19.60;99.90;;;;;;4957185;28;20455;-75
2023/05/09 09:53:02;;;;;;;0.60;0.10;;;19.60;99.90;;;;;;4955800;28;20458;-75
2023/05/09 09:55:31;;;;;;;0.60;0.20;;;19.70;99.90;;;;;;4957335;28;20439;-75
2023/05/09 09:57:59;;;;;;;0.60;0.10;;;19.70;99.90;;;;;;4955910;28;20451;-75
2023/05/09 10:00:30;;;;;;;0.90;0.83;;;19.60;99.90;;;;;;4951557;28;20487;-75
2023/05/09 10:02:59;;;;;;;0.60;0.10;;;19.60;99.90;;;;;;4957814;28;20444;-74
2023/05/09 10:05:29;;;;;;;0.60;0.10;;;19.60;99.90;;;;;;4955920;28;20821;-76
2023/05/09 10:07:58;;;;;;;1.00;0.40;;;19.60;99.90;;;;;;4956226;28;20794;-75
2023/05/09 10:10:28;;;;;;;0.60;0.10;;;19.60;99.90;;;;;;4955950;28;20485;-77
2023/05/09 10:12:58;;;;;;;0.70;0.30;;;19.70;99.90;;;;;;4954936;29;20734;-76
2023/05/09 10:15:28;;;;;;;1.83;1.43;;;19.70;99.90;;;;;;4954605;28;20447;-76
2023/05/09 10:18:07;;;;;;;0.60;0.10;;;19.70;99.90;;;;;;4955823;28;20451;-75
2023/05/09 10:20:40;;;;;;;0.60;0.10;;;19.80;99.90;;;;;;4955223;28;20518;-75
2023/05/09 10:23:10;;;;;;;0.60;0.10;;;19.80;99.90;;;;;;4955452;28;20451;-76
2023/05/09 10:25:40;;;;;;;0.60;0.20;;;19.90;99.90;;;;;;4954253;28;20510;-75
2023/05/09 10:28:11;;;;;;;0.60;0.20;;;19.80;99.90;;;;;;4955682;28;20454;-75
2023/05/09 10:30:50;;;;;;;0.93;0.20;;;19.90;99.90;;;;;;4953305;29;20453;-74
2023/05/09 10:33:23;;;;;;;0.60;0.10;;;19.90;99.90;;;;;;4954558;28;20876;-74
2023/05/09 10:35:53;;;;;;;0.60;0.10;;;19.80;99.90;;;;;;4955627;28;20458;-76
2023/05/09 10:38:23;;;;;;;0.60;0.20;;;20.00;99.90;;;;;;4955538;28;20438;-76
2023/05/09 10:40:52;;;;;;;0.60;0.10;;;20.10;99.90;;;;;;4961421;28;20510;-76
2023/05/09 10:43:22;;;;;;;0.60;0.17;;;20.10;99.90;;;;;;4961529;29;20455;-74
2023/05/09 10:45:51;;;;;;;0.60;0.10;;;20.30;99.90;;;;;;4961497;28;20952;-76
2023/05/09 10:48:21;;;;;;;0.70;0.30;;;20.30;99.90;;;;;;4962117;28;20542;-77
2023/05/09 10:50:49;;;;;;;0.60;0.20;;;20.40;99.90;;;;;;4960137;28;21262;-76
2023/05/09 10:53:17;;;;;;;0.60;0.20;;;20.40;99.90;;;;;;4959818;28;20459;-75
2023/05/09 10:55:50;;;;;;;0.60;0.10;;;20.50;99.90;;;;;;4957878;29;20537;-76
2023/05/09 10:58:21;;;;;;;0.60;0.10;;;20.50;99.90;;;;;;4949693;29;20494;-76
2023/05/09 11:00:49;;;;;;;0.60;0.10;;;20.60;99.90;;;;;;4956145;28;20491;-76
2023/05/09 11:03:18;;;;;;;0.60;0.10;;;20.70;99.90;;;;;;4955327;29;20975;-75
2023/05/09 11:05:49;;;;;;;0.60;0.10;;;20.80;99.90;;;;;;4955391;28;20519;-76
2023/05/09 11:08:23;;;;;;;0.60;0.10;;;20.80;99.90;;;;;;4947542;28;20815;-76
2023/05/09 11:10:52;;;;;;;0.60;0.10;;;20.90;99.90;;;;;;4954925;28;20471;-77
2023/05/09 11:13:22;;;;;;;0.60;0.10;;;20.90;99.90;;;;;;4955519;29;20446;-74
2023/05/09 11:16:04;;;;;;;0.60;0.20;;;20.80;99.90;;;;;;4954828;28;20498;-75
2023/05/09 11:18:32;;;;;;;0.60;0.10;;;20.60;99.90;;;;;;4950879;28;20896;-75
2023/05/09 11:21:08;;;;;;;0.60;0.10;;;20.40;99.90;;;;;;4954586;28;20497;-74
2023/05/09 11:23:38;;;;;;;0.60;0.10;;;20.40;99.90;;;;;;4953678;29;20456;-77
2023/05/09 11:26:08;;;;;;;0.60;0.10;;;20.30;99.90;;;;;;4954717;28;20944;-76
2023/05/09 11:28:37;;;;;;;0.60;0.20;;;20.30;99.90;;;;;;4958489;28;20450;-75
2023/05/09 11:31:10;;;;;;;1.73;1.47;;;20.30;99.90;;;;;;4957622;28;20464;-74
2023/05/09 11:33:40;;;;;;;0.60;0.10;;;20.50;99.90;;;;;;4957288;28;20456;-75
2023/05/09 11:36:17;;;;;;;0.60;0.20;;;20.50;99.90;;;;;;4957820;28;20531;-77
2023/05/09 11:38:46;;;;;;;0.60;0.10;;;20.60;99.90;;;;;;4958134;28;20830;-75
2023/05/09 11:41:14;;;;;;;0.60;0.10;;;20.60;99.90;;;;;;4958050;28;20491;-77
2023/05/09 11:43:44;;;;;;;2.60;2.00;;;20.70;99.90;;;;;;4958026;29;20663;-76
2023/05/09 11:46:12;;;;;;;0.60;0.10;;;20.70;99.90;;;;;;4952750;29;20459;-77
2023/05/09 11:48:41;;;;;;;0.60;0.10;;;20.80;99.90;;;;;;4957873;28;20442;-75
2023/05/09 11:51:16;;;;;;;0.60;0.13;;;20.90;99.90;;;;;;4958431;28;20479;-75
2023/05/09 11:53:45;;;;;;;0.60;0.10;;;20.80;99.90;;;;;;4958974;29;20440;-76
2023/05/09 11:56:14;;;;;;;0.60;0.20;;;20.80;99.90;;;;;;4957968;28;20534;-75
2023/05/09 11:58:42;;;;;;;0.60;0.10;;;;;;;;;;4958183;28;20455;-76
2023/05/09 12:01:13;;;;;;;0.60;0.10;;;20.80;99.90;;;;;;4957627;29;21058;-75
2023/05/09 12:03:44;;;;;;;1.90;1.27;;;20.80;99.90;;;;;;4957795;28;20479;-75
2023/05/09 12:06:18;;;;;;;0.60;0.13;;;20.80;99.90;;;;;;4958000;28;20514;-76
2023/05/09 12:08:46;;;;;;;0.60;0.20;;;20.80;99.90;;;;;;4958078;29;20450;-75
2023/05/09 12:11:15;;;;;;;0.60;0.10;;;20.70;99.90;;;;;;4958128;28;20472;-75
2023/05/09 12:13:47;;;;;;;0.60;0.20;;;20.80;99.90;;;;;;4958274;28;20470;-75
2023/05/09 12:16:15;;;;;;;0.60;0.10;;;20.80;99.90;;;;;;4958383;28;20462;-75
2023/05/09 12:18:48;;;;;;;0.60;0.10;;;20.90;99.90;;;;;;4957120;28;20457;-76
2023/05/09 12:21:18;;;;;;;0.60;0.20;;;21.00;99.90;;;;;;4937913;29;20565;-75
2023/05/09 12:23:46;;;;;;;0.60;0.10;;;21.00;99.90;;;;;;4937972;29;20466;-76
2023/05/09 12:26:18;;;;;;;0.60;0.10;;;21.10;99.90;;;;;;4944810;29;20453;-75
2023/05/09 12:28:48;;;;;;;0.60;0.20;;;21.00;99.90;;;;;;4956575;28;20454;-76
2023/05/09 12:31:17;;;;;;;0.60;0.20;;;21.10;99.90;;;;;;4948495;28;20499;-75
2023/05/09 12:33:46;;;;;;;0.60;0.20;;;21.10;99.90;;;;;;4957062;28;20896;-76
2023/05/09 12:36:14;;;;;;;2.10;2.00;;;21.10;99.90;;;;;;4959028;29;20462;-75
2023/05/09 12:38:54;;;;;;;2.10;0.57;;;21.10;99.90;;;;;;4957908;28;20467;-73
2023/05/09 12:41:23;;;;;;;0.60;0.10;;;21.00;99.90;;;;;;4958061;28;20495;-74
2023/05/09 12:44:23;;;;;;;0.60;0.20;;;;;;;;;;4975765;28;20542;-78
2023/05/09 12:46:59;;;;;;;0.60;0.20;;;21.00;99.90;;;;;;4956622;29;20440;-74
2023/05/09 12:49:30;;;;;;;0.60;0.20;;;21.00;99.90;;;;;;4965303;28;20455;-76
2023/05/09 12:52:00;;;;;;;0.60;0.20;;;21.00;99.90;;;;;;4961786;28;20484;-78
2023/05/09 12:54:32;;;;;;;0.60;0.13;;;;;;;;;;4952347;29;20447;-74
2023/05/09 12:57:03;;;;;;;1.43;0.97;;;;;;;;;;4957227;29;20464;-75
2023/05/09 12:59:32;;;;;;;0.60;0.10;;;20.80;99.90;;;;;;4956506;28;20453;-76
2023/05/09 13:02:00;;;;;;;0.60;0.10;;;20.80;99.90;;;;;;4957241;28;20491;-74
2023/05/09 13:04:29;;;;;;;0.60;0.10;;;20.80;99.90;;;;;;4957550;28;20455;-76
2023/05/09 13:06:58;;;;;;;0.60;0.10;;;20.90;99.90;;;;;;4958874;28;20459;-76
2023/05/09 13:09:27;;;;;;;0.60;0.20;;;21.00;99.90;;;;;;4959621;28;20496;-75
2023/05/09 13:11:56;;;;;;;0.60;0.20;;;21.10;99.90;;;;;;4956751;28;20466;-75
2023/05/09 13:14:25;;;;;;;0.60;0.20;;;21.10;99.90;;;;;;4956662;28;20447;-77
2023/05/09 13:16:54;;;;;;;1.50;1.40;;;21.20;99.90;;;;;;4956008;28;20884;-76
2023/05/09 13:19:22;;;;;;;0.60;0.20;;;21.20;99.90;;;;;;4955554;28;20458;-76
2023/05/09 13:21:51;;;;;;;0.60;0.10;;;21.30;99.90;;;;;;4955812;28;21055;-77
2023/05/09 13:24:19;;;;;;;0.60;0.10;;;21.40;99.90;;;;;;4955826;28;20452;-76
2023/05/09 13:26:47;;;;;;;0.60;0.20;;;21.50;99.90;;;;;;4955456;28;21018;-75
2023/05/09 13:29:17;;;;;;;0.60;0.10;;;21.60;99.90;;;;;;4955868;28;20464;-75
2023/05/09 13:31:50;;;;;;;0.60;0.20;;;21.60;99.90;;;;;;4956406;28;20464;-75
2023/05/09 13:34:19;;;;;;;0.60;0.10;;;;;;;;;;4955700;28;20551;-75
2023/05/09 13:36:47;;;;;;;1.63;1.53;;;21.60;99.90;;;;;;4955810;28;20455;-75
2023/05/09 13:39:15;;;;;;;0.60;0.10;;;;;;;;;;4956115;28;20481;-75
2023/05/09 13:41:43;;;;;;;0.60;0.10;;;21.40;99.90;;;;;;4955512;28;20496;-75
2023/05/09 13:44:11;;;;;;;0.70;0.30;;;21.40;99.90;;;;;;4956320;28;20451;-76
2023/05/09 13:46:40;;;;;;;0.60;0.10;;;21.40;99.90;;;;;;4956783;28;20559;-76
2023/05/09 13:49:08;;;;;;;2.83;2.73;;;21.50;99.90;;;;;;4955279;28;20957;-75
2023/05/09 13:51:36;;;;;;;0.60;0.20;;;21.40;99.90;;;;;;4953738;28;20468;-75
2023/05/09 13:54:07;;;;;;;0.60;0.10;;;21.40;99.90;;;;;;4955622;28;20459;-77
2023/05/09 13:56:35;;;;;;;0.60;0.13;;;;;;;;;;4956599;28;20484;-77
2023/05/09 13:59:03;;;;;;;0.60;0.10;;;;;;;;;;4955821;28;20467;-75
2023/05/09 14:01:31;;;;;;;0.70;0.20;;;21.30;99.90;;;;;;4955018;28;20550;-76
2023/05/09 14:04:01;;;;;;;0.60;0.20;;;21.30;99.90;;;;;;4955493;28;20455;-74
2023/05/09 14:06:29;;;;;;;0.60;0.20;;;21.20;99.90;;;;;;4952124;28;20464;-75
2023/05/09 14:08:57;;;;;;;0.60;0.10;;;21.10;99.90;;;;;;4955074;29;20462;-75
2023/05/09 14:11:25;;;;;;;0.60;0.10;;;21.10;99.90;;;;;;4954426;28;20479;-75
2023/05/09 14:13:53;;;;;;;0.60;0.10;;;21.00;99.90;;;;;;4962602;28;20826;-75
2023/05/09 14:16:20;;;;;;;0.60;0.20;;;21.00;99.90;;;;;;4959532;28;20451;-74
2023/05/09 14:18:48;;;;;;;4.73;4.33;;;21.00;99.90;;;;;;4963454;28;20532;-75
2023/05/09 14:21:18;;;;;;;0.60;0.20;;;20.90;99.90;;;;;;4963742;28;20942;-74
2023/05/09 14:23:46;;;;;;;0.60;0.20;;;20.90;99.90;;;;;;4962546;28;20945;-75
2023/05/09 14:26:14;;;;;;;0.60;0.10;;;20.90;99.90;;;;;;4955158;28;20467;-74
2023/05/09 14:28:43;;;;;;;0.60;0.20;;;20.90;99.90;;;;;;4955367;28;20451;-75
2023/05/09 14:31:11;;;;;;;0.70;0.40;;;20.90;99.90;;;;;;4954011;28;21059;-75
2023/05/09 14:33:39;;;;;;;0.60;0.10;;;20.80;99.90;;;;;;4953833;28;20825;-75
2023/05/09 14:36:07;;;;;;;0.60;0.10;;;20.80;99.90;;;;;;4954707;29;20452;-75
2023/05/09 14:38:37;;;;;;;8.37;7.97;;;20.80;99.90;;;;;;4954949;28;20514;-74
2023/05/09 14:41:05;;;;;;;0.60;0.20;;;20.80;99.90;;;;;;4955920;28;20478;-75
2023/05/09 14:43:33;;;;;;;0.60;0.10;;;20.70;99.90;;;;;;4954040;28;20562;-76
2023/05/09 14:46:01;;;;;;;0.60;0.20;;;20.70;99.90;;;;;;4954603;28;20464;-75
2023/05/09 14:48:29;;;;;;;0.60;0.17;;;20.70;99.90;;;;;;4954560;28;20455;-76
2023/05/09 14:50:57;;;;;;;0.60;0.13;;;20.70;99.90;;;;;;4953458;28;20481;-75
2023/05/09 14:53:25;;;;;;;0.60;0.10;;;20.70;99.90;;;;;;4954359;28;20459;-74
2023/05/09 14:55:54;;;;;;;0.60;0.20;;;20.70;99.90;;;;;;4953659;28;20944;-73
2023/05/09 14:58:23;;;;;;;0.60;0.27;;;20.70;99.90;;;;;;4954541;29;20456;-75
2023/05/09 15:00:52;;;;;;;0.60;0.10;;;;;;;;;;4952972;28;20475;-75
2023/05/09 15:03:20;;;;;;;0.70;0.50;;;20.50;99.90;;;;;;4953771;28;20482;-75
2023/05/09 15:05:49;;;;;;;0.60;0.20;;;20.50;99.90;;;;;;4953622;28;20448;-76
2023/05/09 15:08:17;;;;;;;0.70;0.40;;;20.50;99.90;;;;;;4947143;29;20793;-76
2023/05/09 15:10:45;;;;;;;0.60;0.20;;;20.50;99.90;;;;;;4955889;28;20448;-76
2023/05/09 15:13:14;;;;;;;0.60;0.10;;;20.40;99.90;;;;;;4955649;28;20458;-75
2023/05/09 15:15:42;;;;;;;0.60;0.13;;;20.50;99.90;;;;;;4957649;28;20481;-76
2023/05/09 15:18:12;;;;;;;0.83;0.80;;;20.50;99.90;;;;;;4938670;29;20501;-76
2023/05/09 15:20:40;;;;;;;0.60;0.20;;;20.40;99.90;;;;;;4954488;28;20448;-76
2023/05/09 15:23:08;;;;;;;0.60;0.20;;;20.40;99.90;;;;;;4953483;28;20487;-76
2023/05/09 15:25:35;;;;;;;0.70;0.50;;;20.30;99.90;;;;;;4954678;29;20459;-74
2023/05/09 15:28:04;;;;;;;0.80;0.70;;;20.40;99.90;;;;;;4954247;28;20467;-76
2023/05/09 15:30:34;;;;;;;0.60;0.10;;;20.20;99.90;;;;;;4953295;28;20472;-76
2023/05/09 15:33:05;;;;;;;0.60;0.10;;;20.10;99.90;;;;;;4954153;29;20525;-75
2023/05/09 15:35:33;;;;;;;0.60;0.10;;;20.00;99.90;;;;;;4950844;28;20539;-77
2023/05/09 15:38:01;;;;;;;3.37;3.13;;;19.90;99.90;;;;;;4949272;28;20467;-76
2023/05/09 15:40:30;;;;;;;0.70;0.47;;;19.90;99.90;;;;;;4947444;28;20541;-74
2023/05/09 15:42:58;;;;;;;0.70;0.50;;;19.70;99.90;;;;;;4949292;28;20509;-73
2023/05/09 15:45:26;;;;;;;0.60;0.10;;;19.60;99.90;;;;;;4950558;28;20655;-76
2023/05/09 15:47:56;;;;;;;0.60;0.20;;;19.40;99.90;;;;;;4956452;28;20528;-76
2023/05/09 15:50:25;;;;;;;0.60;0.10;;;;;;;;;;4953533;28;20554;-75
2023/05/09 15:52:53;;;;;;;0.60;0.10;;;19.40;99.90;;;;;;4952730;28;20474;-74
2023/05/09 15:55:21;;;;;;;0.60;0.20;;;19.40;99.90;;;;;;4952861;28;20454;-75
2023/05/09 15:57:50;;;;;;;0.70;0.43;;;19.40;99.90;;;;;;4952704;28;20470;-75
2023/05/09 16:00:19;;;;;;;0.60;0.10;;;19.40;99.90;;;;;;4950100;28;20482;-74
2023/05/09 16:02:47;;;;;;;0.60;0.10;;;19.50;99.90;;;;;;4952540;28;20585;-74
2023/05/09 16:05:16;;;;;;;0.60;0.20;;;19.50;99.90;;;;;;4954003;28;20546;-75
2023/05/09 16:07:51;;;;;;;0.60;0.10;;;19.50;99.90;;;;;;4953364;28;20522;-74
2023/05/09 16:10:21;;;;;;;0.60;0.10;;;19.50;99.90;;;;;;4942925;28;20493;-74
2023/05/09 16:12:49;;;;;;;0.60;0.10;;;19.50;99.90;;;;;;4952184;28;20475;-75
2023/05/09 16:15:17;;;;;;;0.60;0.20;;;19.50;99.90;;;;;;4955905;28;20565;-74
2023/05/09 16:17:45;;;;;;;0.70;0.47;;;19.50;99.90;;;;;;4954799;28;20494;-74
2023/05/09 16:20:13;;;;;;;0.60;0.20;;;19.50;99.90;;;;;;4953501;28;20547;-75
2023/05/09 16:22:43;;;;;;;0.60;0.10;;;19.50;99.90;;;;;;4952448;28;20477;-74
2023/05/09 16:25:11;;;;;;;0.70;0.20;;;19.40;99.90;;;;;;4953137;28;20481;-74
2023/05/09 16:27:42;;;;;;;0.60;0.10;;;19.30;99.90;;;;;;4955259;28;20975;-73
2023/05/09 16:30:14;;;;;;;1.23;0.80;;;19.30;99.90;;;;;;4968841;28;20442;-74
2023/05/09 16:32:42;;;;;;;0.60;0.20;;;19.30;99.90;;;;;;4963830;28;21068;-74
2023/05/09 16:35:13;;;;;;;0.60;0.20;;;19.20;99.90;;;;;;4954486;28;20454;-78
2023/05/09 16:37:43;;;;;;;0.60;0.17;;;19.20;99.90;;;;;;4956426;28;21026;-75
2023/05/09 16:40:14;;;;;;;0.60;0.17;;;19.20;99.90;;;;;;4971207;28;20453;-75
2023/05/09 16:42:43;;;;;;;0.60;0.20;;;19.30;99.90;;;;;;4963867;28;20491;-74
2023/05/09 16:45:11;;;;;;;0.60;0.20;;;19.20;99.90;;;;;;4956105;28;20454;-74
2023/05/09 16:47:42;;;;;;;2.40;2.20;;;19.20;99.90;;;;;;4955193;28;20541;-76
2023/05/09 16:50:13;;;;;;;0.60;0.20;;;19.30;99.90;;;;;;4955467;28;20454;-74
2023/05/09 16:52:46;;;;;;;0.60;0.10;;;19.30;99.90;;;;;;4955280;28;20467;-76
2023/05/09 16:55:14;;;;;;;0.90;0.20;;;19.30;99.90;;;;;;4955605;28;20455;-74
2023/05/09 16:57:42;;;;;;;0.60;0.10;;;19.30;99.90;;;;;;4955863;28;20556;-74
2023/05/09 17:00:11;;;;;;;0.60;0.20;;;19.30;99.90;;;;;;4963892;28;20458;-75